Time;durP1;ratioP1;P1;durP2;ratioP2;P2;SDS_P1;SDS_P2;PMS_P1;PMS_P2;Temp;Humidity;BMP_temperature;BMP_pressure;BME280_temperature;BME280_humidity;BME280_pressure;Samples;Min_cycle;Max_cycle;Signal;HPM_P1;HPM_P2
2023/05/11 00:00:38;;;;;;;37.90;29.58;;;;;;;10.90;100.00;101233.41;4973140;28;20025;-73
2023/05/11 00:03:04;;;;;;;37.60;28.52;;;;;;;10.90;100.00;101236.91;4918749;28;20148;-72
2023/05/11 00:05:30;;;;;;;37.25;30.17;;;;;;;10.90;100.00;101228.94;4899980;28;20111;-73
2023/05/11 00:07:55;;;;;;;39.95;30.15;;;;;;;10.91;100.00;101230.69;4918173;28;20179;-73
2023/05/11 00:10:21;;;;;;;38.20;30.13;;;;;;;10.90;100.00;101226.25;4894838;28;21769;-73
2023/05/11 00:12:46;;;;;;;40.08;30.23;;;;;;;10.89;100.00;101229.88;4903544;28;20025;-73
2023/05/11 00:15:11;;;;;;;38.45;29.63;;;;;;;10.87;100.00;101221.09;4901951;28;20036;-72
2023/05/11 00:17:37;;;;;;;37.83;28.90;;;;;;;10.89;100.00;101226.34;4921913;28;20039;-73
2023/05/11 00:20:04;;;;;;;38.13;30.88;;;;;;;10.90;100.00;101228.94;4968748;28;20032;-73
2023/05/11 00:22:29;;;;;;;38.20;29.77;;;;;;;10.82;100.00;101220.44;4902261;28;20025;-73
2023/05/11 00:24:55;;;;;;;40.80;30.02;;;;;;;10.90;100.00;101228.94;4897796;28;20099;-72
2023/05/11 00:27:20;;;;;;;33.47;27.15;;;;;;;10.89;100.00;101232.53;4913139;28;20036;-73
2023/05/11 00:29:45;;;;;;;41.17;30.38;;;;;;;10.92;100.00;101226.22;5002925;28;20026;-73
2023/05/11 00:32:11;;;;;;;44.50;31.70;;;;;;;10.90;100.00;101228.06;4939277;28;20032;-72
2023/05/11 00:34:36;;;;;;;40.25;30.50;;;;;;;10.88;100.00;101238.81;4977540;28;20087;-72
2023/05/11 00:37:01;;;;;;;41.28;31.00;;;;;;;10.87;100.00;101225.56;4887973;28;20108;-73
2023/05/11 00:39:27;;;;;;;42.33;31.95;;;;;;;10.90;100.00;101233.41;4933655;28;20035;-72
2023/05/11 00:41:52;;;;;;;42.58;31.17;;;;;;;10.86;100.00;101234.47;4944175;28;20163;-73
2023/05/11 00:44:18;;;;;;;38.83;30.40;;;;;;;10.86;100.00;101234.47;4948359;28;20053;-74
2023/05/11 00:46:43;;;;;;;40.60;30.95;;;;;;;10.86;100.00;101243.31;4904418;28;20403;-73
2023/05/11 00:49:09;;;;;;;40.35;31.02;;;;;;;10.86;100.00;101238.00;4905387;29;20035;-74
2023/05/11 00:51:35;;;;;;;38.67;29.20;;;;;;;10.83;100.00;101243.47;4905325;28;20086;-73
2023/05/11 00:54:01;;;;;;;42.45;32.28;;;;;;;10.84;100.00;101244.34;4998946;28;20017;-73
2023/05/11 00:56:27;;;;;;;45.00;32.70;;;;;;;10.86;100.00;101239.78;4891101;29;20422;-75
2023/05/11 00:58:52;;;;;;;47.30;33.90;;;;;;;10.86;100.00;101238.00;4895376;29;20125;-74
2023/05/11 01:01:18;;;;;;;48.75;35.70;;;;;;;10.87;100.00;101244.22;4897449;28;20464;-74
2023/05/11 01:03:45;;;;;;;47.28;34.65;;;;;;;10.84;100.00;101239.88;4959916;28;20047;-74
2023/05/11 01:06:35;;;;;;;51.20;35.97;;;;;;;10.84;100.00;101239.03;4891632;28;20512;-73
2023/05/11 01:09:15;;;;;;;49.45;35.10;;;;;;;10.86;100.00;101238.00;4910929;28;20055;-73
2023/05/11 01:11:59;;;;;;;55.70;38.22;;;;;;;10.86;100.00;101243.31;4911154;28;20172;-73
2023/05/11 01:14:36;;;;;;;59.40;39.90;;;;;;;10.87;100.00;101245.06;4919229;28;20087;-73
2023/05/11 01:17:10;;;;;;;57.30;37.08;;;;;;;10.88;100.00;101245.94;4933635;28;20300;-73
2023/05/11 01:19:45;;;;;;;65.70;42.30;;;;;;;10.87;100.00;101250.41;4955697;28;20712;-72
2023/05/11 01:22:20;;;;;;;68.85;43.40;;;;;;;10.90;100.00;101247.56;4915542;28;20040;-72
2023/05/11 01:25:13;;;;;;;72.40;43.30;;;;;;;10.89;100.00;101245.84;4920126;28;20325;-73
2023/05/11 01:27:54;;;;;;;72.60;44.97;;;;;;;10.90;100.00;101247.56;4900419;28;20430;-73
2023/05/11 01:30:39;;;;;;;71.03;43.60;;;;;;;10.88;100.00;101251.25;4895599;28;20031;-72
2023/05/11 01:33:11;;;;;;;76.68;43.65;;;;;;;10.89;100.00;101237.00;4896381;28;20108;-72
2023/05/11 01:35:41;;;;;;;76.68;45.60;;;;;;;10.84;100.00;101245.19;4933160;28;20033;-72
2023/05/11 01:38:11;;;;;;;70.10;42.13;;;;;;;10.80;100.00;101240.94;4949435;28;20095;-72
2023/05/11 01:40:40;;;;;;;81.50;45.85;;;;;;;10.85;100.00;101244.25;4896464;28;20036;-72
2023/05/11 01:43:12;;;;;;;79.03;45.58;;;;;;;10.80;100.00;101238.28;4901047;28;20036;-72
2023/05/11 01:45:43;;;;;;;78.38;46.63;;;;;;;10.81;100.00;101240.00;4900979;28;20143;-72
2023/05/11 01:48:15;;;;;;;75.13;45.17;;;;;;;10.76;100.00;101242.03;4892017;28;20113;-72
2023/05/11 01:50:42;;;;;;;77.95;46.75;;;;;;;10.75;100.00;101237.63;4902676;28;20032;-73
2023/05/11 01:53:09;;;;;;;87.03;47.70;;;;;;;10.74;100.00;101249.19;4925844;28;20036;-73
2023/05/11 01:55:39;;;;;;;79.38;47.78;;;;;;;10.74;100.00;101249.19;4898145;28;20107;-73
2023/05/11 01:58:07;;;;;;;89.85;50.28;;;;;;;10.75;100.00;101242.97;4908151;28;20059;-73
2023/05/11 02:00:35;;;;;;;85.10;49.47;;;;;;;10.68;100.00;101238.84;4907027;28;20152;-73
2023/05/11 02:03:04;;;;;;;83.72;49.38;;;;;;;10.68;100.00;101246.81;4886849;28;20041;-73
2023/05/11 02:05:32;;;;;;;79.28;49.50;;;;;;;10.68;100.00;101245.03;4885739;28;20405;-73
2023/05/11 02:08:00;;;;;;;86.25;48.97;;;;;;;10.67;100.00;101237.97;4885727;28;20496;-73
2023/05/11 02:10:26;;;;;;;91.35;51.72;;;;;;;10.62;100.00;101231.16;4896560;28;20033;-73
2023/05/11 02:12:53;;;;;;;94.60;51.15;;;;;;;10.63;100.00;101235.53;4893580;28;20032;-73
2023/05/11 02:15:21;;;;;;;92.47;52.03;;;;;;;10.64;100.00;101237.25;4897398;29;20116;-73
2023/05/11 02:17:46;;;;;;;96.78;52.35;;;;;;;10.62;100.00;101232.00;4888955;28;20037;-73
2023/05/11 02:20:14;;;;;;;96.95;54.45;;;;;;;10.62;100.00;101239.13;4884842;28;20083;-73
2023/05/11 02:22:41;;;;;;;102.88;53.90;;;;;;;10.59;100.00;101233.94;4888205;28;20039;-73
2023/05/11 02:25:08;;;;;;;104.30;55.08;;;;;;;10.60;100.00;101236.50;4884910;29;20040;-73
2023/05/11 02:27:34;;;;;;;92.72;52.80;;;;;;;10.55;100.00;101230.53;4887580;28;20405;-73
2023/05/11 02:30:02;;;;;;;102.75;54.65;;;;;;;10.50;100.00;101239.69;4919687;28;20097;-73
2023/05/11 02:32:32;;;;;;;97.88;53.05;;;;;;;10.52;100.00;101237.78;4898283;28;20394;-73
2023/05/11 02:35:06;;;;;;;102.50;55.90;;;;;;;10.51;100.00;101242.25;4926976;28;20029;-73
2023/05/11 02:37:38;;;;;;;107.32;56.60;;;;;;;10.53;100.00;101242.19;4947353;28;20402;-73
2023/05/11 02:40:12;;;;;;;105.10;55.35;;;;;;;10.50;100.00;101237.00;4908929;28;20138;-73
2023/05/11 02:42:40;;;;;;;99.07;53.95;;;;;;;10.47;100.00;101241.53;4892905;28;20051;-74
2023/05/11 02:45:08;;;;;;;94.57;53.20;;;;;;;10.40;100.00;101245.38;4874565;28;20536;-72
2023/05/11 02:47:49;;;;;;;92.40;51.47;;;;;;;10.34;100.00;101243.00;4885941;28;20064;-73
2023/05/11 02:50:17;;;;;;;96.65;52.15;;;;;;;10.31;100.00;101243.13;4883468;28;20029;-72
2023/05/11 02:52:46;;;;;;;98.05;53.78;;;;;;;10.27;100.00;101238.88;4886324;28;20028;-73
2023/05/11 02:55:13;;;;;;;100.85;54.15;;;;;;;10.25;100.00;101250.53;4883944;28;20045;-72
2023/05/11 02:57:39;;;;;;;103.18;53.85;;;;;;;10.24;100.00;101244.28;4882820;28;20364;-72
2023/05/11 03:00:07;;;;;;;104.32;54.95;;;;;;;10.22;100.00;101231.06;4895894;28;20048;-73
2023/05/11 03:02:32;;;;;;;99.63;53.15;;;;;;;10.26;100.00;101241.59;4898519;28;20058;-73
2023/05/11 03:04:58;;;;;;;100.30;53.60;;;;;;;10.28;100.00;101242.38;4923352;28;20156;-73
2023/05/11 03:07:23;;;;;;;97.50;52.47;;;;;;;10.27;100.00;101244.19;4902016;28;20028;-73
2023/05/11 03:09:49;;;;;;;100.72;54.40;;;;;;;10.30;100.00;101244.06;4902919;28;20112;-73
2023/05/11 03:12:15;;;;;;;102.18;54.08;;;;;;;10.33;100.00;101245.72;4905621;28;20579;-73
2023/05/11 03:14:41;;;;;;;106.25;54.70;;;;;;;10.32;100.00;101239.53;4912492;28;20099;-72
2023/05/11 03:17:08;;;;;;;103.80;53.15;;;;;;;10.38;100.00;101246.38;4901459;28;20115;-73
2023/05/11 03:19:36;;;;;;;103.50;54.03;;;;;;;10.39;100.00;101256.97;4902358;28;20083;-73
2023/05/11 03:22:03;;;;;;;101.95;54.38;;;;;;;10.40;100.00;101255.16;4918730;28;20055;-73
2023/05/11 03:24:29;;;;;;;103.70;55.63;;;;;;;10.37;100.00;101256.19;4904779;28;20030;-72
2023/05/11 03:26:56;;;;;;;97.78;53.58;;;;;;;10.40;100.00;101250.69;4893970;28;20028;-72
2023/05/11 03:29:24;;;;;;;102.95;54.65;;;;;;;10.41;100.00;101251.59;4908224;28;20054;-72
2023/05/11 03:31:50;;;;;;;104.57;53.35;;;;;;;10.38;100.00;101252.56;4900988;28;20270;-72
2023/05/11 03:34:15;;;;;;;99.78;54.67;;;;;;;10.39;100.00;101251.63;4933247;28;20497;-73
2023/05/11 03:36:43;;;;;;;106.00;55.05;;;;;;;10.34;100.00;101240.34;4899026;28;20031;-72
2023/05/11 03:39:11;;;;;;;103.75;53.95;;;;;;;10.36;100.00;101254.41;4901527;28;20028;-72
2023/05/11 03:41:38;;;;;;;100.53;53.90;;;;;;;10.35;100.00;101247.38;4894339;28;20032;-72
2023/05/11 03:44:08;;;;;;;107.60;54.53;;;;;;;10.29;100.00;101241.47;4987002;28;20086;-72
2023/05/11 03:46:36;;;;;;;104.60;54.65;;;;;;;10.28;100.00;101231.75;4936866;28;20075;-72
2023/05/11 03:49:03;;;;;;;103.57;56.65;;;;;;;10.28;100.00;101245.03;4904245;28;20025;-72
2023/05/11 03:51:30;;;;;;;106.22;56.80;;;;;;;10.31;100.00;101250.25;4891121;28;20036;-72
2023/05/11 03:53:56;;;;;;;103.45;57.65;;;;;;;10.33;100.00;101245.72;4904717;28;20039;-72
2023/05/11 03:56:22;;;;;;;107.28;57.63;;;;;;;10.27;100.00;101238.00;4917202;28;20025;-72
2023/05/11 03:58:48;;;;;;;111.05;57.95;;;;;;;10.30;100.00;101246.72;4954420;28;20085;-72
2023/05/11 04:01:13;;;;;;;104.25;58.22;;;;;;;10.27;100.00;101241.53;4902251;28;20508;-73
2023/05/11 04:03:51;;;;;;;113.57;59.88;;;;;;;10.25;100.00;101240.75;4899383;28;20508;-72
2023/05/11 04:06:17;;;;;;;112.38;59.65;;;;;;;10.20;100.00;101234.72;4975865;28;20056;-73
2023/05/11 04:08:43;;;;;;;118.25;60.65;;;;;;;10.17;100.00;101240.16;4891224;28;20088;-73
2023/05/11 04:11:08;;;;;;;111.80;59.78;;;;;;;10.12;100.00;101243.03;4892159;28;20337;-72
2023/05/11 04:13:33;;;;;;;112.07;58.95;;;;;;;10.10;100.00;101239.56;4900988;28;20114;-72
2023/05/11 04:15:59;;;;;;;114.60;59.95;;;;;;;10.10;100.00;101242.22;4895479;28;20032;-71
2023/05/11 04:18:24;;;;;;;122.25;61.53;;;;;;;10.08;100.00;101241.44;4906703;28;20059;-72
2023/05/11 04:20:50;;;;;;;117.53;59.75;;;;;;;10.02;100.00;101243.47;4903008;28;20064;-71
2023/05/11 04:23:15;;;;;;;123.90;61.58;;;;;;;10.02;100.00;101252.31;4896882;28;20667;-72
2023/05/11 04:25:40;;;;;;;130.70;63.92;;;;;;;10.02;100.00;101260.28;4899070;28;20024;-72
2023/05/11 04:28:07;;;;;;;133.93;65.93;;;;;;;10.03;100.00;101262.00;4909357;28;20504;-72
2023/05/11 04:30:32;;;;;;;142.52;67.03;;;;;;;10.09;100.00;101266.22;4919908;28;20028;-72
2023/05/11 04:32:58;;;;;;;131.82;63.83;;;;;;;10.15;100.00;101266.81;4903427;29;20075;-72
2023/05/11 04:35:23;;;;;;;154.63;72.88;;;;;;;10.20;100.00;101264.84;4902396;28;20064;-72
2023/05/11 04:37:49;;;;;;;147.20;68.30;;;;;;;10.31;100.00;101272.38;4929383;28;20032;-72
2023/05/11 04:40:15;;;;;;;156.93;71.45;;;;;;;10.33;100.00;101256.38;4993179;28;20471;-72
2023/05/11 04:42:40;;;;;;;154.20;71.70;;;;;;;10.25;100.00;101251.38;4896859;29;20124;-72
2023/05/11 04:45:07;;;;;;;148.20;71.22;;;;;;;10.29;100.00;101260.97;4980855;28;20397;-73
2023/05/11 04:47:34;;;;;;;139.18;70.63;;;;;;;10.27;100.00;101267.25;4976323;28;20123;-72
2023/05/11 04:49:59;;;;;;;148.48;71.97;;;;;;;10.28;100.00;101255.69;4898664;28;20032;-71
2023/05/11 04:52:24;;;;;;;138.50;69.38;;;;;;;10.25;100.00;101264.69;4895291;28;20100;-71
2023/05/11 04:54:50;;;;;;;141.18;70.40;;;;;;;10.31;100.00;101258.22;4934047;28;20134;-71
2023/05/11 04:57:15;;;;;;;145.38;71.32;;;;;;;10.36;100.00;101278.38;4887945;28;20555;-71
2023/05/11 04:59:40;;;;;;;141.93;71.75;;;;;;;10.37;100.00;101266.81;4978404;28;20111;-72
2023/05/11 05:02:06;;;;;;;139.70;70.20;;;;;;;10.48;100.00;101275.19;4905999;28;20598;-71
2023/05/11 05:04:31;;;;;;;142.48;71.80;;;;;;;10.51;100.00;101260.03;4999731;28;20040;-72
2023/05/11 05:06:56;;;;;;;133.35;70.13;;;;;;;10.63;100.00;101278.13;4905076;28;20040;-71
2023/05/11 05:09:22;;;;;;;139.57;69.97;;;;;;;10.63;100.00;101276.31;4898910;28;20452;-73
2023/05/11 05:11:48;;;;;;;127.07;63.58;;;;;;;10.68;100.00;101278.78;4908488;28;20029;-73
2023/05/11 05:14:13;;;;;;;131.40;70.72;;;;;;;10.73;100.00;101274.09;4901892;28;20432;-73
2023/05/11 05:16:39;;;;;;;118.85;63.72;;;;;;;10.71;100.00;101282.16;4934382;28;20123;-72
2023/05/11 05:19:04;;;;;;;120.25;62.67;;;;;;;10.79;100.00;101292.47;4918609;28;20028;-72
2023/05/11 05:21:29;;;;;;;107.60;62.65;;;;;;;10.78;100.00;101284.53;4902390;28;20068;-73
2023/05/11 05:23:55;;;;;;;104.38;58.50;;;;;;;10.72;100.00;101286.56;4905021;29;20122;-72
2023/05/11 05:26:20;;;;;;;93.88;55.03;;;;;;;10.67;100.00;101277.91;4896787;28;20463;-73
2023/05/11 05:28:46;;;;;;;96.53;53.90;;;;;;;10.74;100.00;101283.81;4918703;28;20079;-73
2023/05/11 05:31:11;;;;;;;100.55;56.90;;;;;;;10.74;100.00;101286.47;4911354;28;20036;-73
2023/05/11 05:33:36;;;;;;;99.25;56.05;;;;;;;10.81;100.00;101293.25;4922958;28;20123;-73
2023/05/11 05:36:02;;;;;;;93.88;50.17;;;;;;;10.79;100.00;101286.31;4915659;28;20032;-73
2023/05/11 05:38:27;;;;;;;85.32;48.08;;;;;;;10.86;100.00;101290.38;4917225;28;20559;-72
2023/05/11 05:40:53;;;;;;;80.70;44.17;;;;;;;10.84;100.00;101295.78;4919359;28;20412;-73
2023/05/11 05:43:18;;;;;;;71.97;43.65;;;;;;;10.85;100.00;101297.53;4912604;29;20041;-73
2023/05/11 05:45:43;;;;;;;69.68;42.50;;;;;;;10.88;100.00;101293.88;4925301;28;20496;-73
2023/05/11 05:48:09;;;;;;;69.82;43.50;;;;;;;10.82;100.00;101302.97;4902672;28;20169;-71
2023/05/11 05:50:34;;;;;;;70.00;42.72;;;;;;;10.76;100.00;101305.94;4924574;28;20039;-71
2023/05/11 05:53:00;;;;;;;68.57;43.10;;;;;;;10.71;100.00;101307.94;4900251;28;20162;-72
2023/05/11 05:55:25;;;;;;;73.07;44.47;;;;;;;10.76;100.00;101310.38;4922971;28;20045;-71
2023/05/11 05:57:51;;;;;;;77.97;44.65;;;;;;;10.78;100.00;101306.72;4912825;28;20132;-71
2023/05/11 06:00:16;;;;;;;70.68;43.78;;;;;;;10.82;100.00;101313.63;4923554;28;20568;-71
2023/05/11 06:02:42;;;;;;;70.38;43.35;;;;;;;10.83;100.00;101314.53;4973732;28;20584;-71
2023/05/11 06:05:10;;;;;;;69.68;43.10;;;;;;;10.86;100.00;101311.69;4941942;28;20555;-70
2023/05/11 06:07:35;;;;;;;71.80;42.05;;;;;;;10.82;100.00;101315.44;4986600;28;20036;-71
2023/05/11 06:10:01;;;;;;;71.72;44.15;;;;;;;10.78;100.00;101319.16;4899424;28;20132;-71
2023/05/11 06:12:26;;;;;;;74.93;44.83;;;;;;;10.77;100.00;101315.63;4916788;28;20047;-72
2023/05/11 06:14:52;;;;;;;74.90;45.28;;;;;;;10.87;100.00;101318.78;4891545;28;20091;-72
2023/05/11 06:17:17;;;;;;;85.63;47.03;;;;;;;10.96;100.00;101324.53;4924398;28;20451;-71
2023/05/11 06:19:42;;;;;;;78.07;47.22;;;;;;;11.11;100.00;101324.78;4927714;28;20060;-71
2023/05/11 06:22:08;;;;;;;82.22;48.30;;;;;;;11.22;100.00;101322.50;4976979;28;20197;-72
2023/05/11 06:24:33;;;;;;;80.13;48.05;;;;;;;11.26;100.00;101321.41;4913565;28;20032;-72
2023/05/11 06:26:59;;;;;;;81.88;47.78;;;;;;;11.32;100.00;101328.25;4945852;28;20032;-72
2023/05/11 06:29:24;;;;;;;87.57;51.78;;;;;;;11.29;100.00;101331.09;4912891;28;20335;-72
2023/05/11 06:31:51;;;;;;;84.57;47.72;;;;;;;11.26;100.00;101332.09;4913833;28;20078;-71
2023/05/11 06:34:20;;;;;;;81.70;47.47;;;;;;;11.20;100.00;101338.56;4913863;28;20082;-72
2023/05/11 06:36:49;;;;;;;80.13;46.75;;;;;;;11.16;100.00;101339.63;4988966;28;20043;-71
2023/05/11 06:39:14;;;;;;;78.32;44.97;;;;;;;11.16;100.00;101339.63;4908608;29;20047;-70
2023/05/11 06:41:40;;;;;;;75.50;46.55;;;;;;;11.15;100.00;101335.22;4911111;28;20407;-71
2023/05/11 06:44:05;;;;;;;68.88;42.55;;;;;;;11.08;100.00;101331.13;4985163;28;20071;-71
2023/05/11 06:46:31;;;;;;;75.05;45.97;;;;;;;11.10;100.00;101341.69;4905860;28;20063;-71
2023/05/11 06:48:56;;;;;;;74.35;45.80;;;;;;;11.02;100.00;101334.06;4933985;28;20583;-72
2023/05/11 06:51:22;;;;;;;74.15;45.28;;;;;;;11.03;100.00;101341.09;4924424;28;20144;-71
2023/05/11 06:53:48;;;;;;;82.00;49.83;;;;;;;11.08;100.00;101348.91;4904783;28;20522;-71
2023/05/11 06:56:14;;;;;;;83.45;49.25;;;;;;;11.09;100.00;101340.84;4911192;28;20109;-73
2023/05/11 06:58:39;;;;;;;79.80;49.15;;;;;;;11.15;100.00;101340.56;4898991;29;20025;-73
2023/05/11 07:01:06;;;;;;;92.43;51.58;;;;;;;11.26;100.00;101345.41;4978727;28;20044;-71
2023/05/11 07:03:33;;;;;;;90.15;51.88;;;;;;;11.31;100.00;101353.19;4902682;28;20113;-71
2023/05/11 07:05:58;;;;;;;82.82;50.53;;;;;;;11.43;100.00;101345.50;4897333;29;20443;-72
2023/05/11 07:08:24;;;;;;;86.95;52.90;;;;;;;11.52;100.00;101343.34;4901749;28;20059;-71
2023/05/11 07:10:50;;;;;;;85.95;52.33;;;;;;;11.62;100.00;101350.84;4913458;28;20080;-71
2023/05/11 07:13:16;;;;;;;79.13;50.03;;;;;;;11.72;100.00;101354.78;4899262;28;20047;-71
2023/05/11 07:15:41;;;;;;;78.75;49.05;;;;;;;11.83;100.00;101345.44;4906786;28;20024;-72
2023/05/11 07:18:08;;;;;;;84.53;50.22;;;;;;;11.88;100.00;101352.28;4924407;28;20123;-72
2023/05/11 07:20:35;;;;;;;83.95;50.40;;;;;;;11.93;100.00;101342.25;4913770;28;20348;-71
2023/05/11 07:23:00;;;;;;;89.60;51.25;;;;;;;12.01;100.00;101351.69;4914385;28;20034;-73
2023/05/11 07:25:26;;;;;;;87.32;53.08;;;;;;;12.03;100.00;101350.66;4915157;28;20044;-72
2023/05/11 07:27:51;;;;;;;88.15;53.22;;;;;;;11.99;100.00;101346.41;4969200;28;20056;-73
2023/05/11 07:30:17;;;;;;;101.22;55.13;;;;;;;12.06;100.00;101347.84;4984899;28;20119;-72
2023/05/11 07:32:42;;;;;;;93.75;55.03;;;;;;;11.99;100.00;101346.41;4908842;28;20024;-68
2023/05/11 07:35:08;;;;;;;101.53;58.20;;;;;;;12.01;100.00;101351.69;4905488;28;20064;-70
2023/05/11 07:37:33;;;;;;;97.57;58.35;;;;;;;11.98;100.00;101355.38;4900609;28;20028;-70
2023/05/11 07:39:58;;;;;;;107.22;60.45;;;;;;;12.04;100.00;101354.19;4920717;28;20516;-67
2023/05/11 07:42:24;;;;;;;105.90;61.55;;;;;;;12.02;100.00;101361.41;4921049;28;20051;-70
2023/05/11 07:44:49;;;;;;;114.38;65.82;;;;;;;11.94;100.00;101368.00;4910665;28;20020;-71
2023/05/11 07:47:16;;;;;;;113.00;66.65;;;;;;;11.94;100.00;101362.66;4904650;28;20047;-69
2023/05/11 07:49:42;;;;;;;111.10;66.75;;;;;;;11.92;100.00;101358.34;4897401;28;20024;-71
2023/05/11 07:52:08;;;;;;;118.20;64.90;;;;;;;11.96;100.00;101365.25;4901527;28;20322;-68
2023/05/11 07:54:34;;;;;;;112.18;63.38;;;;;;;12.02;100.00;101369.44;4901873;29;20094;-72
2023/05/11 07:57:00;;;;;;;104.28;61.58;;;;;;;12.02;100.00;101364.09;4903016;29;20064;-72
2023/05/11 07:59:25;;;;;;;107.10;63.10;;;;;;;12.03;100.00;101364.00;4904835;28;20514;-68
2023/05/11 08:01:51;;;;;;;99.07;59.40;;;;;;;12.05;100.00;101364.81;4914466;28;20041;-68
2023/05/11 08:04:16;;;;;;;103.25;62.03;;;;;;;12.14;100.00;101369.69;4898140;28;20039;-71
2023/05/11 08:06:41;;;;;;;104.25;59.58;;;;;;;12.21;100.00;101356.94;4894513;28;20142;-66
2023/05/11 08:09:08;;;;;;;100.10;59.17;;;;;;;12.37;100.00;101371.25;4900068;28;20043;-64
2023/05/11 08:11:33;;;;;;;97.05;57.40;;;;;;;12.41;100.00;101364.78;4911090;28;20028;-65
2023/05/11 08:13:58;;;;;;;98.50;59.30;;;;;;;12.51;100.00;101372.34;4905676;29;20036;-65
2023/05/11 08:16:24;;;;;;;101.78;58.60;;;;;;;12.56;100.00;101375.66;4950172;28;20130;-65
2023/05/11 08:18:49;;;;;;;98.10;58.10;;;;;;;12.71;100.00;101380.22;4904651;28;20028;-66
2023/05/11 08:21:15;;;;;;;93.63;58.13;;;;;;;12.76;100.00;101375.50;4973386;28;20056;-66
2023/05/11 08:23:40;;;;;;;97.22;60.55;;;;;;;12.75;100.00;101384.47;4910126;28;20378;-65
2023/05/11 08:26:05;;;;;;;100.63;58.58;;;;;;;12.73;100.00;101386.31;4895236;28;20051;-66
2023/05/11 08:28:31;;;;;;;105.75;61.65;;;;;;;12.80;100.00;101378.88;4897928;28;20035;-65
2023/05/11 08:30:57;;;;;;;107.95;61.40;;;;;;;12.85;100.00;101388.38;4895553;28;20043;-65
2023/05/11 08:33:23;;;;;;;102.30;61.33;;;;;;;12.81;100.00;101386.78;4900419;28;20038;-64
2023/05/11 08:35:48;;;;;;;107.75;62.15;;;;;;;12.80;100.00;101384.22;4904587;28;20504;-65
2023/05/11 08:38:14;;;;;;;107.88;61.25;;;;;;;12.69;100.00;101382.09;4899098;28;20647;-66
2023/05/11 08:40:46;;;;;;;105.90;63.80;;;;;;;12.65;100.00;101376.03;4893009;28;20094;-65
2023/05/11 08:43:13;;;;;;;101.80;60.75;;;;;;;12.69;100.00;101379.41;4890461;28;20371;-65
2023/05/11 08:45:40;;;;;;;98.95;60.50;;;;;;;12.72;100.00;101381.94;4894225;29;20024;-66
2023/05/11 08:48:06;;;;;;;102.10;60.67;;;;;;;12.75;100.00;101375.56;4891852;28;20036;-65
2023/05/11 08:50:32;;;;;;;94.78;57.22;;;;;;;12.84;100.00;101386.66;4969199;28;20085;-64
2023/05/11 08:52:57;;;;;;;87.50;56.38;;;;;;;13.04;100.00;101374.94;4970894;28;20039;-65
2023/05/11 08:55:25;;;;;;;93.95;56.95;;;;;;;13.35;100.00;101374.19;4933748;28;20037;-65
2023/05/11 08:57:52;;;;;;;86.75;54.55;;;;;;;13.79;100.00;101381.56;4953555;28;20396;-64
2023/05/11 09:00:18;;;;;;;83.65;52.28;;;;;;;14.05;100.00;101382.78;4902234;28;20032;-65
2023/05/11 09:02:45;;;;;;;80.50;50.42;;;;;;;14.12;100.00;101389.50;4915616;28;20040;-65
2023/05/11 09:05:11;;;;;;;83.20;50.80;;;;;;;14.25;100.00;101394.16;4899697;28;20024;-65
2023/05/11 09:07:40;;;;;;;78.00;49.08;;;;;;;14.30;100.00;101392.09;4912129;28;20455;-65
2023/05/11 09:10:07;;;;;;;77.30;49.88;;;;;;;14.62;100.00;101392.91;4903305;28;20214;-64
2023/05/11 09:12:32;;;;;;;74.57;47.53;;;;;;;14.82;100.00;101394.41;4910531;28;20040;-64
2023/05/11 09:14:58;;;;;;;67.32;45.17;;;;;;;15.13;100.00;101401.44;4902492;29;20293;-65
2023/05/11 09:17:26;;;;;;;67.35;45.03;;;;;;;15.25;100.00;101389.97;4898229;28;20625;-66
2023/05/11 09:19:59;;;;;;;66.05;44.75;;;;;;;15.53;100.00;101393.63;4901595;28;20035;-66
2023/05/11 09:22:25;;;;;;;64.80;42.38;;;;;;;15.84;98.67;101389.88;4899621;28;20062;-64
2023/05/11 09:24:51;;;;;;;68.13;43.08;;;;;;;15.69;96.62;101386.38;4902078;29;20035;-65
2023/05/11 09:27:17;;;;;;;66.20;43.22;;;;;;;15.35;96.11;101393.81;4905690;28;20487;-65
2023/05/11 09:29:42;;;;;;;62.55;43.92;;;;;;;15.00;98.46;101400.47;4893304;28;20039;-66
2023/05/11 09:32:07;;;;;;;53.40;37.40;;;;;;;14.74;100.00;101394.88;4935558;28;20104;-65
2023/05/11 09:34:33;;;;;;;48.60;34.22;;;;;;;14.57;100.00;101400.38;4901292;28;20186;-65
2023/05/11 09:36:58;;;;;;;62.95;42.45;;;;;;;14.40;100.00;101401.31;4901211;29;20714;-65
2023/05/11 09:39:33;;;;;;;71.65;47.22;;;;;;;14.34;100.00;101402.53;4902183;28;20671;-66
2023/05/11 09:42:14;;;;;;;60.92;41.22;;;;;;;14.26;100.00;101390.56;4903582;28;20032;-65
2023/05/11 09:44:40;;;;;;;64.13;43.72;;;;;;;14.13;100.00;101399.28;4902534;29;20105;-66
2023/05/11 09:47:14;;;;;;;61.28;43.53;;;;;;;14.13;100.00;101401.09;4906338;28;20040;-66
2023/05/11 09:49:42;;;;;;;60.55;41.15;;;;;;;14.16;100.00;101399.09;4899970;28;20032;-65
2023/05/11 09:52:12;;;;;;;62.67;41.50;;;;;;;14.16;100.00;101406.25;4894624;28;20080;-66
2023/05/11 09:54:45;;;;;;;59.83;40.60;;;;;;;14.39;100.00;101396.91;4902120;28;20020;-65
2023/05/11 09:57:28;;;;;;;58.67;39.95;;;;;;;14.74;100.00;101400.22;4908826;28;20029;-65
2023/05/11 09:59:55;;;;;;;53.22;37.17;;;;;;;14.91;99.15;101407.25;4896549;29;20334;-67
2023/05/11 10:02:29;;;;;;;50.90;34.70;;;;;;;15.23;99.18;101402.63;4905774;28;20071;-67
2023/05/11 10:04:59;;;;;;;52.33;36.08;;;;;;;15.51;96.67;101398.22;4899883;29;20036;-67
2023/05/11 10:07:34;;;;;;;54.08;35.25;;;;;;;15.79;93.71;101398.22;4901998;28;20032;-67
2023/05/11 10:10:02;;;;;;;50.63;36.75;;;;;;;15.83;95.15;101397.06;4935085;28;20105;-66
2023/05/11 10:12:29;;;;;;;51.35;35.45;;;;;;;15.91;95.70;101397.44;4889285;28;20511;-66
2023/05/11 10:15:00;;;;;;;51.75;35.25;;;;;;;15.89;94.40;101399.38;4900146;28;20040;-66
2023/05/11 10:17:27;;;;;;;46.13;33.30;;;;;;;16.01;92.84;101399.53;4896873;28;20039;-66
2023/05/11 10:19:55;;;;;;;47.08;32.20;;;;;;;15.96;89.99;101405.19;4903896;29;20036;-66
2023/05/11 10:22:21;;;;;;;47.67;31.77;;;;;;;15.86;90.71;101393.34;4901958;28;20055;-65
2023/05/11 10:24:47;;;;;;;40.95;30.15;;;;;;;15.55;91.62;101408.69;4997183;28;20054;-67
2023/05/11 10:27:13;;;;;;;41.92;29.48;;;;;;;15.19;95.18;101410.00;4904968;28;20130;-66
2023/05/11 10:29:41;;;;;;;45.70;29.98;;;;;;;15.15;96.08;101408.47;4918583;28;20029;-67
2023/05/11 10:32:06;;;;;;;39.72;30.23;;;;;;;15.32;95.45;101410.09;4916141;28;20053;-67
2023/05/11 10:34:32;;;;;;;43.70;30.20;;;;;;;15.45;91.34;101397.66;4926825;28;20031;-66
2023/05/11 10:37:01;;;;;;;42.67;31.17;;;;;;;15.64;92.35;101404.56;4989683;28;20040;-66
2023/05/11 10:39:30;;;;;;;45.42;32.95;;;;;;;15.73;92.53;101400.47;5008588;28;20040;-66
2023/05/11 10:42:10;;;;;;;48.10;31.75;;;;;;;15.84;91.05;101393.47;4914628;28;20032;-66
2023/05/11 10:45:08;;;;;;;38.50;27.95;;;;;;;16.06;94.31;101400.13;4917346;28;20047;-65
2023/05/11 10:47:57;;;;;;;34.85;26.60;;;;;;;16.17;90.42;101401.13;4938458;28;20051;-66
2023/05/11 10:50:31;;;;;;;35.08;25.08;;;;;;;16.48;86.88;101393.75;4918593;28;20035;-66
2023/05/11 10:53:21;;;;;;;30.75;21.92;;;;;;;17.23;86.96;101388.63;4900703;29;20139;-67
2023/05/11 10:56:14;;;;;;;25.95;20.35;;;;;;;18.14;83.36;101393.75;4896474;29;20087;-65
2023/05/11 10:59:21;;;;;;;32.77;22.83;;;;;;;18.98;82.95;101389.22;4898327;28;20408;-66
2023/05/11 11:01:51;;;;;;;31.10;23.60;;;;;;;18.63;75.24;101390.06;4915873;28;20521;-65